Time;durP1;ratioP1;P1;durP2;ratioP2;P2;SDS_P1;SDS_P2;PMS_P1;PMS_P2;Temp;Humidity;BMP_temperature;BMP_pressure;BME280_temperature;BME280_humidity;BME280_pressure;Samples;Min_cycle;Max_cycle;Signal;HPM_P1;HPM_P2
2023/01/02 00:00:18;;;;;;;;;;;;;;;-143.48;100.00;118439.88;5055093;28;20003;-67
2023/01/02 00:02:44;;;;;;;;;;;;;;;-143.48;100.00;118439.88;5037078;28;20382;-67
2023/01/02 00:05:09;;;;;;;;;;;;;;;-143.48;100.00;118439.88;5054425;28;19912;-67
2023/01/02 00:07:35;;;;;;;;;;;;;;;-143.48;100.00;118439.88;5055389;28;19909;-67
2023/01/02 00:10:00;;;;;;;;;;;;;;;-143.48;100.00;118439.88;5054795;28;19999;-67
2023/01/02 00:12:25;;;;;;;;;;;;;;;-143.48;100.00;118439.88;5054850;28;19951;-68
2023/01/02 00:14:50;;;;;;;;;;;;;;;-143.48;100.00;118439.88;5054854;28;19947;-68
2023/01/02 00:17:17;;;;;;;;;;;;;;;-143.48;100.00;118439.88;5054806;28;20389;-68
2023/01/02 00:19:42;;;;;;;;;;;;;;;-143.48;100.00;118439.88;5055120;28;19912;-68
2023/01/02 00:22:08;;;;;;;;;;;;;;;-143.48;100.00;118439.88;5054593;28;19908;-69
2023/01/02 00:24:33;;;;;;;;;;;;;;;-143.48;100.00;118439.88;5036854;28;19909;-67
2023/01/02 00:26:58;;;;;;;;;;;;;;;-143.48;100.00;118439.88;5036676;28;20011;-67
2023/01/02 00:29:23;;;;;;;;;;;;;;;-143.48;100.00;118439.88;5037082;28;19909;-67
2023/01/02 00:31:48;;;;;;;;;;;;;;;-143.48;100.00;118439.88;5037030;28;19987;-68
2023/01/02 00:34:13;;;;;;;;;;;;;;;-143.48;100.00;118439.88;5036585;28;19951;-68
2023/01/02 00:36:39;;;;;;;;;;;;;;;-143.48;100.00;118439.88;5054526;28;20356;-68
2023/01/02 00:39:04;;;;;;;;;;;;;;;-143.48;100.00;118439.88;5036590;28;19965;-67
2023/01/02 00:41:29;;;;;;;;;;;;;;;-143.48;100.00;118439.88;5054505;28;19932;-67
2023/01/02 00:43:54;;;;;;;;;;;;;;;-143.48;100.00;118439.88;5054397;28;19916;-67
2023/01/02 00:46:19;;;;;;;;;;;;;;;-143.48;100.00;118439.88;5036396;28;19958;-66
2023/01/02 00:48:45;;;;;;;;;;;;;;;-143.48;100.00;118439.88;5054516;28;19944;-66
2023/01/02 00:51:10;;;;;;;;;;;;;;;-143.48;100.00;118439.88;5054362;28;20036;-67
2023/01/02 00:53:35;;;;;;;;;;;;;;;-143.48;100.00;118439.88;5054058;28;19909;-67
2023/01/02 00:56:00;;;;;;;;;;;;;;;-143.48;100.00;118439.88;5054099;28;20379;-67
2023/01/02 00:58:25;;;;;;;;;;;;;;;-143.48;100.00;118439.88;5054141;28;19959;-66
2023/01/02 01:00:51;;;;;;;;;;;;;;;-143.48;100.00;118439.88;5035869;28;20012;-67
2023/01/02 01:03:16;;;;;;;;;;;;;;;-143.48;100.00;118439.88;5054533;28;19920;-66
2023/01/02 01:05:41;;;;;;;;;;;;;;;-143.48;100.00;118439.88;5054026;28;20372;-67
2023/01/02 01:08:06;;;;;;;;;;;;;;;-143.48;100.00;118439.88;5053821;28;20364;-67
2023/01/02 01:10:31;;;;;;;;;;;;;;;-143.48;100.00;118439.88;5053981;28;19940;-67
2023/01/02 01:12:57;;;;;;;;;;;;;;;-143.48;100.00;118439.88;5053694;28;20421;-67
2023/01/02 01:15:22;;;;;;;;;;;;;;;-143.48;100.00;118439.88;5053355;28;19918;-67
2023/01/02 01:17:47;;;;;;;;;;;;;;;-143.48;100.00;118439.88;5053185;28;19909;-67
2023/01/02 01:20:12;;;;;;;;;;;;;;;-143.48;100.00;118439.88;5053505;28;20000;-67
2023/01/02 01:22:37;;;;;;;;;;;;;;;-143.48;100.00;118439.88;5053782;28;19908;-67
2023/01/02 01:25:03;;;;;;;;;;;;;;;-143.48;100.00;118439.88;5053771;28;20283;-67
2023/01/02 01:27:28;;;;;;;;;;;;;;;-143.48;100.00;118439.88;5053450;28;19917;-67
2023/01/02 01:29:53;;;;;;;;;;;;;;;-143.48;100.00;118439.88;5053622;28;19908;-67
2023/01/02 01:32:18;;;;;;;;;;;;;;;-143.48;100.00;118439.88;5053570;28;19930;-67
2023/01/02 01:34:45;;;;;;;;;;;;;;;-143.48;100.00;118439.88;5053505;28;20024;-67
2023/01/02 01:37:10;;;;;;;;;;;;;;;-143.48;100.00;118439.88;5053513;28;19952;-67
2023/01/02 01:39:36;;;;;;;;;;;;;;;-143.48;100.00;118439.88;5053312;28;19913;-67
2023/01/02 01:42:01;;;;;;;;;;;;;;;-143.48;100.00;118439.88;5053331;28;19916;-68
2023/01/02 01:44:44;;;;;;;;;;;;;;;-143.48;100.00;118439.88;5053345;28;19959;-67
2023/01/02 01:47:12;;;;;;;;;;;;;;;-143.48;100.00;118439.88;5053244;28;19909;-68
2023/01/02 01:49:38;;;;;;;;;;;;;;;-143.48;100.00;118439.88;5053447;28;19974;-68
2023/01/02 01:52:05;;;;;;;;;;;;;;;-143.48;100.00;118439.88;5053282;28;19909;-67
2023/01/02 01:54:33;;;;;;;;;;;;;;;-143.48;100.00;118439.88;5053606;28;19908;-67
2023/01/02 01:57:01;;;;;;;;;;;;;;;-143.48;100.00;118439.88;5053188;28;19909;-67
2023/01/02 01:59:26;;;;;;;;;;;;;;;-143.48;100.00;118439.88;5053209;28;20490;-67
2023/01/02 02:01:52;;;;;;;;;;;;;;;-143.48;100.00;118439.88;5053415;28;19916;-68
2023/01/02 02:04:19;;;;;;;;;;;;;;;-143.48;100.00;118439.88;5053082;28;19950;-68
2023/01/02 02:06:44;;;;;;;;;;;;;;;-143.48;100.00;118439.88;5053253;28;20026;-67
2023/01/02 02:09:14;;;;;;;;;;;;;;;-143.48;100.00;118439.88;5052933;28;19940;-68
2023/01/02 02:11:40;;;;;;;;;;;;;;;-143.48;100.00;118439.88;5035170;28;20050;-68
2023/01/02 02:14:05;;;;;;;;;;;;;;;-143.48;100.00;118439.88;5035051;28;19959;-68
2023/01/02 02:16:33;;;;;;;;;;;;;;;-143.48;100.00;118439.88;5053751;28;19916;-68
2023/01/02 02:19:15;;;;;;;;;;;;;;;-143.48;100.00;118439.88;5053027;28;20307;-68
2023/01/02 02:21:41;;;;;;;;;;;;;;;-143.48;100.00;118439.88;5053568;28;19962;-68
2023/01/02 02:24:24;;;;;;;;;;;;;;;-143.48;100.00;118439.88;5053213;28;19948;-68
2023/01/02 02:26:57;;;;;;;;;;;;;;;-143.48;100.00;118439.88;5052871;28;19916;-68
2023/01/02 02:29:25;;;;;;;;;;;;;;;-143.48;100.00;118439.88;5056659;28;19916;-67
2023/01/02 02:32:14;;;;;;;;;;;;;;;-143.48;100.00;118439.88;5038748;28;20292;-68
2023/01/02 02:34:47;;;;;;;;;;;;;;;-143.48;100.00;118439.88;5050844;28;19920;-67
2023/01/02 02:37:41;;;;;;;;;;;;;;;-143.48;100.00;118439.88;5056577;28;19909;-68
2023/01/02 02:40:06;;;;;;;;;;;;;;;-143.48;100.00;118439.88;5047074;28;19916;-68
2023/01/02 02:42:40;;;;;;;;;;;;;;;-143.48;100.00;118439.88;5056645;28;20422;-68
2023/01/02 02:45:09;;;;;;;;;;;;;;;-143.48;100.00;118439.88;5056431;28;19920;-68
2023/01/02 02:47:40;;;;;;;;;;;;;;;-143.48;100.00;118439.88;5038651;28;19909;-68
2023/01/02 02:50:15;;;;;;;;;;;;;;;-143.48;100.00;118439.88;5056138;28;20007;-67
2023/01/02 02:52:40;;;;;;;;;;;;;;;-143.48;100.00;118439.88;5056405;28;19966;-68
2023/01/02 02:55:06;;;;;;;;;;;;;;;-143.48;100.00;118439.88;5056189;28;19920;-68
2023/01/02 02:57:32;;;;;;;;;;;;;;;-143.48;100.00;118439.88;5056057;28;19915;-68
2023/01/02 02:59:57;;;;;;;;;;;;;;;-143.48;100.00;118439.88;5056115;28;19951;-68
2023/01/02 03:02:22;;;;;;;;;;;;;;;-143.48;100.00;118439.88;5056322;28;19912;-68
2023/01/02 03:04:53;;;;;;;;;;;;;;;-143.48;100.00;118439.88;5056033;28;19955;-68
2023/01/02 03:07:28;;;;;;;;;;;;;;;-143.48;100.00;118439.88;5055885;28;19909;-68
2023/01/02 03:10:03;;;;;;;;;;;;;;;-143.48;100.00;118439.88;5055917;28;19908;-68
2023/01/02 03:12:28;;;;;;;;;;;;;;;-143.48;100.00;118439.88;5037908;28;19916;-67
2023/01/02 03:14:57;;;;;;;;;;;;;;;-143.48;100.00;118439.88;5055831;28;19908;-67
2023/01/02 03:17:32;;;;;;;;;;;;;;;-143.48;100.00;118439.88;5055604;28;19915;-67
2023/01/02 03:20:00;;;;;;;;;;;;;;;-143.48;100.00;118439.88;5055564;28;19913;-68
2023/01/02 03:22:30;;;;;;;;;;;;;;;-143.48;100.00;118439.88;5056013;28;19915;-67
2023/01/02 03:24:57;;;;;;;;;;;;;;;-143.48;100.00;118439.88;5055701;28;20003;-67
2023/01/02 03:27:25;;;;;;;;;;;;;;;-143.48;100.00;118439.88;5055431;28;19917;-67
2023/01/02 03:29:58;;;;;;;;;;;;;;;-143.48;100.00;118439.88;5055449;28;19937;-67
2023/01/02 03:32:29;;;;;;;;;;;;;;;-143.48;100.00;118439.88;5055488;28;19917;-68
2023/01/02 03:34:54;;;;;;;;;;;;;;;-143.48;100.00;118439.88;5055502;28;19962;-67
2023/01/02 03:37:27;;;;;;;;;;;;;;;-143.48;100.00;118439.88;5055629;28;19908;-67
2023/01/02 03:39:53;;;;;;;;;;;;;;;-143.48;100.00;118439.88;5054753;28;20344;-67
2023/01/02 03:42:25;;;;;;;;;;;;;;;-143.48;100.00;118439.88;5055400;28;19955;-68
2023/01/02 03:44:57;;;;;;;;;;;;;;;-143.48;100.00;118439.88;5055440;28;19939;-68
2023/01/02 03:47:31;;;;;;;;;;;;;;;-143.48;100.00;118439.88;5055296;28;19908;-67
2023/01/02 03:49:58;;;;;;;;;;;;;;;-143.48;100.00;118439.88;5055136;28;19935;-67
2023/01/02 03:52:24;;;;;;;;;;;;;;;-143.48;100.00;118439.88;5055129;28;19913;-67
2023/01/02 03:54:50;;;;;;;;;;;;;;;-143.48;100.00;118439.88;5055024;28;19962;-67
2023/01/02 03:57:32;;;;;;;;;;;;;;;-143.48;100.00;118439.88;5055279;28;19909;-67
2023/01/02 04:00:01;;;;;;;;;;;;;;;-143.48;100.00;118439.88;5054803;28;19917;-67
2023/01/02 04:02:27;;;;;;;;;;;;;;;-143.48;100.00;118439.88;5054932;28;19974;-67
2023/01/02 04:05:00;;;;;;;;;;;;;;;-143.48;100.00;118439.88;5054682;28;19908;-68
2023/01/02 04:07:36;;;;;;;;;;;;;;;-143.48;100.00;118439.88;5054757;28;19908;-67
2023/01/02 04:10:02;;;;;;;;;;;;;;;-143.48;100.00;118439.88;5054784;28;20291;-67
2023/01/02 04:12:28;;;;;;;;;;;;;;;-143.48;100.00;118439.88;5054758;28;19909;-68
2023/01/02 04:14:58;;;;;;;;;;;;;;;-143.48;100.00;118439.88;5054533;28;19958;-68
2023/01/02 04:17:25;;;;;;;;;;;;;;;-143.48;100.00;118439.88;5054551;28;19931;-67
2023/01/02 04:19:53;;;;;;;;;;;;;;;-143.48;100.00;118439.88;5054590;28;19913;-67
2023/01/02 04:22:22;;;;;;;;;;;;;;;-143.48;100.00;118439.88;5054487;28;19909;-67
2023/01/02 04:24:53;;;;;;;;;;;;;;;-143.48;100.00;118439.88;5054469;28;20032;-67
2023/01/02 04:27:27;;;;;;;;;;;;;;;-143.48;100.00;118439.88;5036396;28;20364;-66
2023/01/02 04:29:53;;;;;;;;;;;;;;;-143.48;100.00;118439.88;5054414;28;19999;-66
2023/01/02 04:32:33;;;;;;;;;;;;;;;-143.48;100.00;118439.88;5054348;28;20336;-67
2023/01/02 04:34:59;;;;;;;;;;;;;;;-143.48;100.00;118439.88;5054224;28;19962;-67
2023/01/02 04:37:43;;;;;;;;;;;;;;;-143.48;100.00;118439.88;5054065;28;19912;-67
2023/01/02 04:40:11;;;;;;;;;;;;;;;-143.48;100.00;118439.88;5054208;28;19919;-67
2023/01/02 04:42:36;;;;;;;;;;;;;;;-143.48;100.00;118439.88;5054009;28;20390;-67
2023/01/02 04:45:01;;;;;;;;;;;;;;;-143.48;100.00;118439.88;5054061;28;20003;-67
2023/01/02 04:47:26;;;;;;;;;;;;;;;-143.48;100.00;118439.88;5054147;28;19908;-67
2023/01/02 04:49:52;;;;;;;;;;;;;;;-143.48;100.00;118439.88;5053377;28;19909;-67
2023/01/02 04:52:17;;;;;;;;;;;;;;;-143.48;100.00;118439.88;5053891;28;19909;-67
2023/01/02 04:54:42;;;;;;;;;;;;;;;-143.48;100.00;118439.88;5053957;28;20359;-67
2023/01/02 04:57:07;;;;;;;;;;;;;;;-143.48;100.00;118439.88;5053639;28;19912;-67
2023/01/02 04:59:32;;;;;;;;;;;;;;;-143.48;100.00;118439.88;5051726;28;19913;-67
2023/01/02 05:01:58;;;;;;;;;;;;;;;-143.48;100.00;118439.88;5051659;28;19908;-67
2023/01/02 05:04:23;;;;;;;;;;;;;;;-143.48;100.00;118439.88;5051768;28;19916;-67
2023/01/02 05:06:48;;;;;;;;;;;;;;;-143.48;100.00;118439.88;5051739;28;19913;-67
2023/01/02 05:09:14;;;;;;;;;;;;;;;-143.48;100.00;118439.88;5050452;28;19908;-67
2023/01/02 05:11:40;;;;;;;;;;;;;;;-143.48;100.00;118439.88;5051738;28;19948;-67
2023/01/02 05:14:05;;;;;;;;;;;;;;;-143.48;100.00;118439.88;5035291;28;19971;-67
2023/01/02 05:16:30;;;;;;;;;;;;;;;-143.48;100.00;118439.88;5053484;28;19916;-66
2023/01/02 05:18:55;;;;;;;;;;;;;;;-143.48;100.00;118439.88;5053386;28;19967;-67
2023/01/02 05:24:04;;;;;;;;;;;;;;;-143.48;100.00;118439.88;5053646;28;19916;-67
2023/01/02 05:26:31;;;;;;;;;;;;;;;-143.48;100.00;118439.88;5053345;28;19909;-67
2023/01/02 05:28:56;;;;;;;;;;;;;;;-143.48;100.00;118439.88;5053131;28;19919;-67
2023/01/02 05:31:22;;;;;;;;;;;;;;;-143.48;100.00;118439.88;5052673;28;19913;-67
2023/01/02 05:33:53;;;;;;;;;;;;;;;-143.48;100.00;118439.88;5053402;28;19915;-67
2023/01/02 05:36:20;;;;;;;;;;;;;;;-143.48;100.00;118439.88;5053201;28;19908;-67
2023/01/02 05:38:45;;;;;;;;;;;;;;;-143.48;100.00;118439.88;5053401;28;20421;-67
2023/01/02 05:41:10;;;;;;;;;;;;;;;-143.48;100.00;118439.88;5053389;28;19913;-67
2023/01/02 05:43:36;;;;;;;;;;;;;;;-143.48;100.00;118439.88;5053336;28;19915;-67
2023/01/02 05:46:12;;;;;;;;;;;;;;;-143.48;100.00;118439.88;5035318;28;20368;-67
2023/01/02 05:48:37;;;;;;;;;;;;;;;-143.48;100.00;118439.88;5035303;28;19920;-67
2023/01/02 05:51:03;;;;;;;;;;;;;;;-143.48;100.00;118439.88;5053409;28;19909;-67
2023/01/02 05:53:28;;;;;;;;;;;;;;;-143.48;100.00;118439.88;5035297;28;19916;-67
2023/01/02 05:55:53;;;;;;;;;;;;;;;-143.48;100.00;118439.88;5035191;28;20368;-68
2023/01/02 05:58:19;;;;;;;;;;;;;;;-143.48;100.00;118439.88;5053184;28;20003;-67
2023/01/02 06:00:44;;;;;;;;;;;;;;;-143.48;100.00;118439.88;5053728;28;20368;-68
2023/01/02 06:03:09;;;;;;;;;;;;;;;-143.48;100.00;118439.88;5055481;28;19908;-68
2023/01/02 06:05:34;;;;;;;;;;;;;;;-143.48;100.00;118439.88;5057332;28;19908;-67
2023/01/02 06:07:59;;;;;;;;;;;;;;;-143.48;100.00;118439.88;5057114;28;20387;-68
2023/01/02 06:10:25;;;;;;;;;;;;;;;-143.48;100.00;118439.88;5057117;28;19912;-67
2023/01/02 06:12:50;;;;;;;;;;;;;;;-143.48;100.00;118439.88;5057047;28;19909;-67
2023/01/02 06:15:15;;;;;;;;;;;;;;;-143.48;100.00;118439.88;5056851;28;19965;-67
2023/01/02 06:17:40;;;;;;;;;;;;;;;-143.48;100.00;118439.88;5039494;28;19916;-67
2023/01/02 06:20:06;;;;;;;;;;;;;;;-143.48;100.00;118439.88;5039047;28;19960;-67
2023/01/02 06:22:31;;;;;;;;;;;;;;;-143.48;100.00;118439.88;5039046;28;19916;-66
2023/01/02 06:24:56;;;;;;;;;;;;;;;-143.48;100.00;118439.88;5063592;28;19912;-67
2023/01/02 06:27:21;;;;;;;;;;;;;;;-143.48;100.00;118439.88;5057217;28;19917;-67
2023/01/02 06:29:46;;;;;;;;;;;;;;;-143.48;100.00;118439.88;5057201;28;20392;-68
2023/01/02 06:32:12;;;;;;;;;;;;;;;-143.48;100.00;118439.88;5067743;28;19909;-68
2023/01/02 06:34:37;;;;;;;;;;;;;;;-143.48;100.00;118439.88;5067157;28;20308;-66
2023/01/02 06:37:02;;;;;;;;;;;;;;;-143.48;100.00;118439.88;5061904;28;19909;-67
2023/01/02 06:39:28;;;;;;;;;;;;;;;-143.48;100.00;118439.88;5045248;28;19912;-67
2023/01/02 06:41:53;;;;;;;;;;;;;;;-143.48;100.00;118439.88;5058480;28;20026;-67
2023/01/02 06:44:18;;;;;;;;;;;;;;;-143.48;100.00;118439.88;5063370;28;19915;-67
2023/01/02 06:46:43;;;;;;;;;;;;;;;-143.48;100.00;118439.88;5059791;28;19915;-67
2023/01/02 06:49:08;;;;;;;;;;;;;;;-143.48;100.00;118439.88;5059610;28;19972;-66
2023/01/02 06:51:34;;;;;;;;;;;;;;;-143.48;100.00;118439.88;5062230;28;19962;-65
2023/01/02 06:53:59;;;;;;;;;;;;;;;-143.48;100.00;118439.88;5063177;28;19908;-65
2023/01/02 06:56:24;;;;;;;;;;;;;;;-143.48;100.00;118439.88;5058623;28;19958;-66
2023/01/02 06:58:49;;;;;;;;;;;;;;;-143.48;100.00;118439.88;5056688;28;20201;-66
2023/01/02 07:01:16;;;;;;;;;;;;;;;-143.48;100.00;118439.88;5056221;28;20342;-68
2023/01/02 07:03:42;;;;;;;;;;;;;;;-143.48;100.00;118439.88;5038603;28;20415;-68
2023/01/02 07:06:08;;;;;;;;;;;;;;;-143.48;100.00;118439.88;5037994;28;19940;-68
2023/01/02 07:08:34;;;;;;;;;;;;;;;-143.48;100.00;118439.88;5056094;28;20003;-68
2023/01/02 07:11:06;;;;;;;;;;;;;;;-143.48;100.00;118439.88;5055914;28;20399;-69
2023/01/02 07:13:31;;;;;;;;;;;;;;;-143.48;100.00;118439.88;5054895;28;20307;-68
2023/01/02 07:16:00;;;;;;;;;;;;;;;-143.48;99.96;118439.88;5041287;28;19917;-69
2023/01/02 07:18:25;;;;;;;;;;;;;;;-143.48;100.00;118439.88;5061613;28;19908;-68
2023/01/02 07:20:53;;;;;;;;;;;;;;;-143.48;100.00;118439.88;5055872;28;19919;-65
2023/01/02 07:23:18;;;;;;;;;;;;;;;-143.48;100.00;118439.88;5055574;28;19999;-66
2023/01/02 07:25:43;;;;;;;;;;;;;;;-143.48;99.94;118439.88;5055593;28;19984;-66
2023/01/02 07:28:09;;;;;;;;;;;;;;;-143.48;99.74;118439.88;5055393;28;19916;-67
2023/01/02 07:30:34;;;;;;;;;;;;;;;-143.48;99.96;118439.88;5055542;28;20414;-63
2023/01/02 07:32:59;;;;;;;;;;;;;;;-143.48;100.00;118439.88;5055472;28;19908;-65
2023/01/02 07:35:24;;;;;;;;;;;;;;;-143.48;100.00;118439.88;5056050;28;19987;-64
2023/01/02 07:37:50;;;;;;;;;;;;;;;-143.48;100.00;118439.88;5055530;28;19915;-64
2023/01/02 07:40:15;;;;;;;;;;;;;;;-143.48;100.00;118439.88;5055503;28;19913;-65
2023/01/02 07:42:40;;;;;;;;;;;;;;;-143.48;100.00;118439.88;5055215;28;19915;-65
2023/01/02 07:45:06;;;;;;;;;;;;;;;-143.48;100.00;118439.88;5055389;28;20012;-65
2023/01/02 07:47:31;;;;;;;;;;;;;;;-143.48;100.00;118439.88;5055296;28;19909;-65
2023/01/02 07:49:56;;;;;;;;;;;;;;;-143.48;99.87;118439.88;5055094;28;19923;-65
2023/01/02 07:52:22;;;;;;;;;;;;;;;-143.48;99.89;118439.88;5055209;28;19909;-65
2023/01/02 07:54:47;;;;;;;;;;;;;;;-143.48;100.00;118439.88;5037107;28;20360;-64
2023/01/02 07:57:12;;;;;;;;;;;;;;;-143.48;100.00;118439.88;5055268;28;19915;-69
2023/01/02 07:59:37;;;;;;;;;;;;;;;-143.48;100.00;118439.88;5037287;28;20058;-67
2023/01/02 08:02:02;;;;;;;;;;;;;;;-143.48;99.50;118439.88;5062779;28;19908;-68
2023/01/02 08:04:28;;;;;;;;;;;;;;;-143.48;99.30;118439.88;5053824;28;19909;-66
2023/01/02 08:06:53;;;;;;;;;;;;;;;-143.48;99.81;118439.88;5061869;28;20364;-67
2023/01/02 08:09:18;;;;;;;;;;;;;;;-143.48;99.99;118439.88;5037077;28;20406;-65
2023/01/02 08:11:43;;;;;;;;;;;;;;;-143.48;99.86;118439.88;5055760;28;20424;-64
2023/01/02 08:14:09;;;;;;;;;;;;;;;-143.48;100.00;118439.88;5054906;28;19912;-67
2023/01/02 08:16:34;;;;;;;;;;;;;;;-143.48;100.00;118439.88;5054616;28;19912;-67
2023/01/02 08:18:59;;;;;;;;;;;;;;;-143.48;100.00;118439.88;5054453;28;20367;-67
2023/01/02 08:21:25;;;;;;;;;;;;;;;-143.48;100.00;118439.88;5054318;28;19913;-67
2023/01/02 08:23:50;;;;;;;;;;;;;;;-143.48;100.00;118439.88;5036300;28;19932;-67
2023/01/02 08:26:16;;;;;;;;;;;;;;;-143.48;100.00;118439.88;5054013;28;20023;-64
2023/01/02 08:28:41;;;;;;;;;;;;;;;-143.48;100.00;118439.88;5054018;28;20054;-64
2023/01/02 08:31:08;;;;;;;;;;;;;;;-143.48;100.00;118439.88;5054279;28;19999;-65
2023/01/02 08:33:33;;;;;;;;;;;;;;;-143.48;100.00;118439.88;5037744;28;19915;-64
2023/01/02 08:35:58;;;;;;;;;;;;;;;-143.48;100.00;118439.88;5054472;28;19991;-64
2023/01/02 08:38:23;;;;;;;;;;;;;;;-143.48;100.00;118439.88;5054394;28;20178;-64
2023/01/02 08:40:49;;;;;;;;;;;;;;;-143.48;100.00;118439.88;5054350;28;19912;-64
2023/01/02 08:43:14;;;;;;;;;;;;;;;-143.48;99.72;118439.88;5054442;28;19915;-64
2023/01/02 08:45:39;;;;;;;;;;;;;;;-143.48;100.00;118439.88;5054295;28;19908;-65
2023/01/02 08:48:05;;;;;;;;;;;;;;;-143.48;99.53;118439.88;5037499;28;19912;-65
2023/01/02 08:50:30;;;;;;;;;;;;;;;-143.48;99.30;118439.88;5054596;28;19909;-64
2023/01/02 08:52:55;;;;;;;;;;;;;;;-143.48;99.09;118439.88;5054774;28;19908;-64
2023/01/02 08:55:23;;;;;;;;;;;;;;;-143.48;99.43;118439.88;5058027;28;19936;-67
2023/01/02 08:57:48;;;;;;;;;;;;;;;-143.48;99.28;118439.88;5066406;28;20356;-65
2023/01/02 09:00:14;;;;;;;;;;;;;;;-143.48;99.58;118439.88;5046478;28;19919;-65
2023/01/02 09:02:39;;;;;;;;;;;;;;;-143.48;99.49;118439.88;5061197;28;19968;-64
2023/01/02 09:05:04;;;;;;;;;;;;;;;-143.48;99.58;118439.88;5055169;28;19915;-65
2023/01/02 09:07:33;;;;;;;;;;;;;;;-143.48;99.40;118439.88;5054939;28;19909;-64
2023/01/02 09:09:58;;;;;;;;;;;;;;;-143.48;98.99;118439.88;5055297;28;19916;-64
2023/01/02 09:12:23;;;;;;;;;;;;;;;-143.48;98.11;118439.88;5055267;28;19909;-65
2023/01/02 09:14:48;;;;;;;;;;;;;;;-143.48;97.37;118439.88;5056150;28;19909;-65
2023/01/02 09:17:13;;;;;;;;;;;;;;;-143.48;97.59;118439.88;5057309;28;19908;-65
2023/01/02 09:19:41;;;;;;;;;;;;;;;-143.48;97.88;118439.88;5059258;28;19919;-64
2023/01/02 09:22:08;;;;;;;;;;;;;;;-143.48;97.03;118439.88;5065732;28;19948;-65
2023/01/02 09:24:33;;;;;;;;;;;;;;;-143.48;96.42;118439.88;5048691;28;19932;-64
2023/01/02 09:26:58;;;;;;;;;;;;;;;-143.48;96.33;118439.88;5054026;28;19916;-65
2023/01/02 09:29:23;;;;;;;;;;;;;;;-143.48;96.95;118439.88;5070571;28;19909;-66
2023/01/02 09:31:49;;;;;;;;;;;;;;;-143.48;96.63;118439.88;5071474;28;19915;-66
2023/01/02 09:34:14;;;;;;;;;;;;;;;-143.48;96.45;118439.88;5068966;28;19908;-65
2023/01/02 09:36:39;;;;;;;;;;;;;;;-143.48;96.96;118439.88;5068492;28;19909;-68
2023/01/02 09:39:04;;;;;;;;;;;;;;;-143.48;96.53;118439.88;5065790;28;20043;-66
2023/01/02 09:41:33;;;;;;;;;;;;;;;-143.48;96.02;118439.88;5044532;28;20328;-63
2023/01/02 09:44:01;;;;;;;;;;;;;;;-143.48;96.43;118439.88;5057418;28;19913;-64
2023/01/02 09:46:29;;;;;;;;;;;;;;;-143.48;96.39;118439.88;5056547;28;19916;-63
2023/01/02 09:48:54;;;;;;;;;;;;;;;-143.48;97.24;118439.88;5056743;28;19940;-64
2023/01/02 09:51:19;;;;;;;;;;;;;;;-143.48;96.34;118439.88;5055491;28;19916;-64
2023/01/02 09:53:44;;;;;;;;;;;;;;;-143.48;96.03;118439.88;5054851;28;19944;-63
2023/01/02 09:56:17;;;;;;;;;;;;;;;-143.48;95.97;118439.88;5036827;28;19936;-62
2023/01/02 09:58:57;;;;;;;;;;;;;;;-143.48;95.46;118439.88;5054461;28;19916;-64
2023/01/02 10:01:27;;;;;;;;;;;;;;;-143.48;94.98;118439.88;5036673;28;20007;-64
2023/01/02 10:03:52;;;;;;;;;;;;;;;-143.48;94.30;118439.88;5054035;28;20011;-66
2023/01/02 10:06:20;;;;;;;;;;;;;;;-143.48;94.79;118439.88;5054240;28;19959;-66
2023/01/02 10:08:48;;;;;;;;;;;;;;;-143.48;93.38;118439.88;5054686;28;19908;-66
2023/01/02 10:11:16;;;;;;;;;;;;;;;-143.48;93.48;118439.88;5054481;28;19916;-67
2023/01/02 10:13:50;;;;;;;;;;;;;;;-143.48;93.19;118439.88;5054883;28;19939;-67
2023/01/02 10:16:17;;;;;;;;;;;;;;;-143.48;93.38;118439.88;5036181;28;19915;-67
2023/01/02 10:18:44;;;;;;;;;;;;;;;-143.48;92.10;118439.88;5036002;28;19908;-67
2023/01/02 10:21:29;;;;;;;;;;;;;;;-143.48;91.28;118439.88;5053554;28;20338;-67
2023/01/02 10:23:54;;;;;;;;;;;;;;;-143.48;92.87;118439.88;5053227;28;19916;-67
2023/01/02 10:26:21;;;;;;;;;;;;;;;-143.48;92.58;118439.88;5053221;28;19909;-67
2023/01/02 10:28:51;;;;;;;;;;;;;;;-143.48;91.57;118439.88;5035589;28;19920;-67
2023/01/02 10:31:20;;;;;;;;;;;;;;;-143.48;91.38;118439.88;5035663;28;19915;-67
2023/01/02 10:33:54;;;;;;;;;;;;;;;-143.48;92.39;118439.88;5052142;28;19908;-67
2023/01/02 10:36:22;;;;;;;;;;;;;;;-143.48;90.01;118439.88;5055877;28;19908;-67
2023/01/02 10:38:47;;;;;;;;;;;;;;;-143.48;90.25;118439.88;5053437;28;20352;-67
2023/01/02 10:41:12;;;;;;;;;;;;;;;-143.48;88.86;118439.88;5052902;28;20003;-66
2023/01/02 10:43:37;;;;;;;;;;;;;;;-143.48;86.56;118439.88;5053032;28;19908;-67
2023/01/02 10:46:03;;;;;;;;;;;;;;;-143.48;86.74;118439.88;5052999;28;20292;-67
2023/01/02 10:48:31;;;;;;;;;;;;;;;-143.48;87.29;118439.88;5053908;28;19916;-67
2023/01/02 10:50:59;;;;;;;;;;;;;;;-143.48;87.81;118439.88;5055948;28;20360;-67
2023/01/02 10:53:29;;;;;;;;;;;;;;;-143.48;87.20;118439.88;5040977;28;20387;-68
2023/01/02 10:55:55;;;;;;;;;;;;;;;-143.48;87.30;118439.88;5056255;28;19970;-66
2023/01/02 10:58:21;;;;;;;;;;;;;;;-143.48;87.43;118439.88;5054352;28;20360;-66
2023/01/02 11:00:47;;;;;;;;;;;;;;;-143.48;87.51;118439.88;5054314;28;19938;-67
2023/01/02 11:03:19;;;;;;;;;;;;;;;-143.48;88.22;118439.88;5040936;28;19909;-67
2023/01/02 11:05:51;;;;;;;;;;;;;;;-143.48;87.95;118439.88;5056608;28;19948;-67
2023/01/02 11:08:19;;;;;;;;;;;;;;;-143.48;88.40;118439.88;5056478;28;19955;-67
2023/01/02 11:10:45;;;;;;;;;;;;;;;-143.48;87.73;118439.88;5056584;28;20287;-67
2023/01/02 11:13:11;;;;;;;;;;;;;;;-143.48;86.59;118439.88;5056813;28;19919;-66
2023/01/02 11:15:45;;;;;;;;;;;;;;;-143.48;84.32;118439.88;5057587;28;20494;-66
2023/01/02 11:18:16;;;;;;;;;;;;;;;-143.48;83.66;118439.88;5059115;28;19915;-66
2023/01/02 11:20:46;;;;;;;;;;;;;;;-143.48;83.77;118439.88;5056395;28;19919;-67
2023/01/02 11:23:12;;;;;;;;;;;;;;;-143.48;83.83;118439.88;5056569;28;19915;-67
2023/01/02 11:25:39;;;;;;;;;;;;;;;-143.48;83.25;118439.88;5038734;28;19912;-67
2023/01/02 11:28:04;;;;;;;;;;;;;;;-143.48;83.90;118439.88;5057095;28;19923;-67
2023/01/02 11:30:30;;;;;;;;;;;;;;;-143.48;84.33;118439.88;5057712;28;19909;-66
2023/01/02 11:33:05;;;;;;;;;;;;;;;-143.48;85.35;118439.88;5056499;28;19908;-66
2023/01/02 11:35:35;;;;;;;;;;;;;;;-143.48;86.33;118439.88;5056354;28;19909;-66
2023/01/02 11:38:01;;;;;;;;;;;;;;;-143.48;85.78;118439.88;5055989;28;19909;-66
2023/01/02 11:40:28;;;;;;;;;;;;;;;-143.48;86.95;118439.88;5056068;28;19912;-66
2023/01/02 11:45:38;;;;;;;;;;;;;;;-143.48;87.29;118439.88;5057164;28;19915;-68
2023/01/02 11:48:09;;;;;;;;;;;;;;;-143.48;86.56;118439.88;5056689;28;19924;-67
2023/01/02 11:50:35;;;;;;;;;;;;;;;-143.48;87.26;118439.88;5054195;28;19944;-65
2023/01/02 11:53:02;;;;;;;;;;;;;;;-143.48;88.22;118439.88;5054346;28;19920;-65
2023/01/02 11:55:34;;;;;;;;;;;;;;;-143.48;87.74;118439.88;5036232;28;19966;-65
2023/01/02 11:58:05;;;;;;;;;;;;;;;-143.48;87.47;118439.88;5054280;28;19909;-64
2023/01/02 12:00:32;;;;;;;;;;;;;;;-143.48;88.27;118439.88;5035824;28;20044;-65
2023/01/02 12:03:11;;;;;;;;;;;;;;;-143.48;87.66;118439.88;5036228;28;19909;-65
2023/01/02 12:05:42;;;;;;;;;;;;;;;-143.48;87.72;118439.88;5054769;28;20407;-65
2023/01/02 12:08:18;;;;;;;;;;;;;;;-143.48;87.54;118439.88;5055274;28;19946;-63
2023/01/02 12:10:46;;;;;;;;;;;;;;;-143.48;87.71;118439.88;5055140;28;20115;-65
2023/01/02 12:13:25;;;;;;;;;;;;;;;-143.48;87.99;118439.88;5062779;28;20392;-65
2023/01/02 12:16:04;;;;;;;;;;;;;;;-143.48;88.09;118439.88;5062943;28;19915;-65